createdAt,value
2017-07-24T00:00:33.297Z,16.84
2017-07-24T00:03:05.691Z,16.86
2017-07-24T00:05:38.112Z,16.80
2017-07-24T00:08:10.280Z,16.77
2017-07-24T00:10:42.731Z,16.75
2017-07-24T00:13:14.868Z,16.75
2017-07-24T00:15:47.304Z,16.71
2017-07-24T00:18:19.700Z,16.66
2017-07-24T00:20:52.011Z,16.57
2017-07-24T00:23:24.409Z,16.52
2017-07-24T00:25:56.732Z,16.51
2017-07-24T00:28:29.065Z,16.48
2017-07-24T00:31:01.328Z,16.40
2017-07-24T00:33:33.788Z,16.40
2017-07-24T00:36:06.147Z,16.39
2017-07-24T00:38:38.418Z,16.36
2017-07-24T00:41:10.620Z,16.33
2017-07-24T00:43:42.836Z,16.30
2017-07-24T00:46:15.176Z,16.30
2017-07-24T00:48:47.384Z,16.31
2017-07-24T00:51:19.762Z,16.31
2017-07-24T00:53:52.058Z,16.31
2017-07-24T00:56:24.384Z,16.29
2017-07-24T00:58:56.768Z,16.30
2017-07-24T01:01:29.040Z,16.30
2017-07-24T01:04:01.459Z,16.33
2017-07-24T01:06:33.871Z,16.31
2017-07-24T01:09:06.288Z,16.31
2017-07-24T01:11:38.567Z,16.31
2017-07-24T01:14:10.991Z,16.25
2017-07-24T01:16:43.272Z,16.24
2017-07-24T01:19:15.667Z,16.24
2017-07-24T01:21:47.966Z,16.20
2017-07-24T01:24:20.277Z,16.13
2017-07-24T01:26:52.507Z,16.07
2017-07-24T01:29:24.844Z,16.03
2017-07-24T01:31:57.211Z,15.96
2017-07-24T01:34:29.541Z,15.94
2017-07-24T01:37:01.784Z,15.97
2017-07-24T01:39:34.256Z,15.96
2017-07-24T01:42:07.439Z,15.91
2017-07-24T01:44:40.128Z,15.92
2017-07-24T01:47:12.571Z,15.88
2017-07-24T01:49:44.943Z,15.89
2017-07-24T01:52:17.320Z,15.87
2017-07-24T01:54:49.729Z,15.87
2017-07-24T01:57:22.048Z,15.85
2017-07-24T01:59:54.379Z,15.84
2017-07-24T02:02:26.699Z,15.82
2017-07-24T02:04:59.076Z,15.83
2017-07-24T02:07:31.292Z,15.86
2017-07-24T02:10:03.742Z,15.89
2017-07-24T02:12:36.225Z,15.93
2017-07-24T02:15:08.400Z,15.96
2017-07-24T02:17:40.747Z,15.96
2017-07-24T02:20:13.255Z,15.95
2017-07-24T02:22:45.591Z,15.96
2017-07-24T02:25:17.987Z,15.92
2017-07-24T02:27:50.341Z,15.91
2017-07-24T02:30:22.688Z,15.78
2017-07-24T02:32:54.974Z,15.61
2017-07-24T02:35:27.313Z,15.42
2017-07-24T02:37:59.604Z,15.33
2017-07-24T02:40:32.007Z,15.26
2017-07-24T02:43:04.334Z,15.34
2017-07-24T02:45:36.567Z,15.38
2017-07-24T02:48:08.906Z,15.32
2017-07-24T02:50:41.336Z,15.35
2017-07-24T02:53:13.499Z,15.40
2017-07-24T02:55:46.081Z,15.35
2017-07-24T02:58:18.180Z,15.32
2017-07-24T03:00:50.612Z,15.27
2017-07-24T03:03:23.192Z,15.19
2017-07-24T03:05:55.539Z,15.20
2017-07-24T03:08:27.938Z,15.22
2017-07-24T03:11:00.341Z,15.28
2017-07-24T03:13:32.572Z,15.31
2017-07-24T03:16:05.001Z,15.34
2017-07-24T03:18:37.232Z,15.42
2017-07-24T03:21:09.689Z,15.47
2017-07-24T03:23:42.048Z,15.51
2017-07-24T03:26:14.476Z,15.56
2017-07-24T03:28:46.812Z,15.60
2017-07-24T03:31:19.081Z,15.62
2017-07-24T03:33:51.323Z,15.64
2017-07-24T03:36:23.632Z,15.69
2017-07-24T03:38:56.111Z,15.72
2017-07-24T03:41:28.232Z,15.71
2017-07-24T03:44:00.504Z,15.71
2017-07-24T03:46:32.912Z,15.74
2017-07-24T03:49:05.236Z,15.74
2017-07-24T03:51:37.512Z,15.75
2017-07-24T03:54:09.821Z,15.71
2017-07-24T03:56:42.189Z,15.65
2017-07-24T03:59:14.484Z,15.68
2017-07-24T04:01:46.925Z,15.76
2017-07-24T04:04:19.304Z,15.80
2017-07-24T04:06:51.692Z,15.83
2017-07-24T04:09:23.965Z,15.88
2017-07-24T04:11:56.348Z,15.95
2017-07-24T04:14:28.683Z,15.97
2017-07-24T04:17:00.975Z,15.96
2017-07-24T04:19:33.350Z,16.02
2017-07-24T04:22:05.675Z,16.08
2017-07-24T04:24:38.080Z,16.13
2017-07-24T04:27:10.387Z,16.18
2017-07-24T04:29:42.628Z,16.22
2017-07-24T04:32:14.972Z,16.28
2017-07-24T04:34:47.216Z,16.29
2017-07-24T04:37:19.842Z,16.34
2017-07-24T04:39:51.900Z,16.43
2017-07-24T04:42:24.211Z,16.44
2017-07-24T04:44:56.428Z,16.41
2017-07-24T04:47:28.748Z,16.47
2017-07-24T04:50:00.928Z,16.43
2017-07-24T04:52:33.399Z,16.48
2017-07-24T04:55:05.648Z,16.60
2017-07-24T04:57:38.276Z,16.64
2017-07-24T05:00:10.478Z,16.59
2017-07-24T05:02:43.036Z,16.67
2017-07-24T05:05:15.064Z,16.67
2017-07-24T05:07:47.343Z,16.64
2017-07-24T05:10:19.768Z,16.64
2017-07-24T05:12:52.042Z,16.60
2017-07-24T05:15:24.424Z,16.64
2017-07-24T05:17:56.727Z,16.60
2017-07-24T05:20:29.104Z,16.62
2017-07-24T05:23:01.552Z,16.69
2017-07-24T05:25:33.923Z,16.75
2017-07-24T05:28:06.293Z,16.72
2017-07-24T05:30:38.653Z,16.74
2017-07-24T05:33:10.912Z,16.81
2017-07-24T05:35:43.188Z,16.87
2017-07-24T05:38:16.615Z,16.88
2017-07-24T05:40:48.996Z,16.93
2017-07-24T05:43:21.412Z,16.98
2017-07-24T05:45:53.723Z,17.03
2017-07-24T05:48:26.149Z,17.10
2017-07-24T05:50:58.412Z,17.08
2017-07-24T05:53:30.887Z,17.09
2017-07-24T05:56:03.124Z,17.10
2017-07-24T05:58:35.624Z,17.10
2017-07-24T06:01:08.039Z,17.16
2017-07-24T06:03:40.864Z,17.17
2017-07-24T06:06:13.128Z,17.16
2017-07-24T06:08:45.383Z,17.17
2017-07-24T06:11:17.905Z,17.18
2017-07-24T06:13:50.236Z,17.23
2017-07-24T06:16:22.556Z,17.35
2017-07-24T06:18:54.856Z,17.42
2017-07-24T06:21:27.072Z,17.47
2017-07-24T06:23:59.653Z,17.57
2017-07-24T06:26:31.971Z,17.63
2017-07-24T06:29:04.207Z,17.64
2017-07-24T06:31:36.596Z,17.66
2017-07-24T06:34:08.929Z,17.71
2017-07-24T06:36:41.296Z,17.82
2017-07-24T06:39:13.676Z,17.82
2017-07-24T06:41:46.153Z,17.76
2017-07-24T06:44:18.436Z,17.75
2017-07-24T06:46:50.912Z,17.77
2017-07-24T06:49:23.304Z,17.81
2017-07-24T06:51:55.716Z,17.87
2017-07-24T06:54:28.214Z,17.88
2017-07-24T06:57:00.680Z,17.87
2017-07-24T06:59:33.027Z,17.86
2017-07-24T07:02:05.540Z,17.94
2017-07-24T07:04:37.892Z,18.01
2017-07-24T07:07:10.395Z,18.03
2017-07-24T07:09:42.873Z,18.02
2017-07-24T07:12:15.555Z,17.99
2017-07-24T07:14:47.596Z,18.02
2017-07-24T07:17:19.992Z,18.06
2017-07-24T07:19:52.336Z,18.04
2017-07-24T07:22:24.657Z,18.07
2017-07-24T07:24:57.006Z,18.13
2017-07-24T07:27:29.475Z,18.16
2017-07-24T07:30:01.848Z,18.18
2017-07-24T07:32:34.159Z,18.17
2017-07-24T07:35:06.605Z,18.30
2017-07-24T07:37:38.973Z,18.36
2017-07-24T07:40:11.256Z,18.44
2017-07-24T07:42:43.630Z,18.54
2017-07-24T07:45:15.877Z,18.59
2017-07-24T07:47:48.356Z,18.66
2017-07-24T07:50:20.699Z,18.55
2017-07-24T07:52:53.167Z,18.54
2017-07-24T07:55:25.460Z,18.53
2017-07-24T07:57:57.864Z,18.58
2017-07-24T08:00:30.163Z,18.59
2017-07-24T08:03:02.616Z,18.63
2017-07-24T08:05:34.967Z,18.65
2017-07-24T08:08:07.392Z,18.84
2017-07-24T08:10:39.777Z,19.00
2017-07-24T08:13:12.100Z,19.21
2017-07-24T08:15:44.559Z,19.31
2017-07-24T08:18:16.893Z,19.38
2017-07-24T08:20:49.396Z,19.43
2017-07-24T08:23:21.904Z,19.39
2017-07-24T08:25:54.353Z,19.30
2017-07-24T08:28:26.767Z,19.40
2017-07-24T08:30:59.099Z,19.41
2017-07-24T08:33:31.406Z,19.36
2017-07-24T08:36:03.736Z,19.22
2017-07-24T08:38:36.154Z,19.22
2017-07-24T08:41:08.596Z,19.19
2017-07-24T08:43:41.003Z,19.20
2017-07-24T08:46:13.401Z,19.20
2017-07-24T08:48:45.731Z,19.17
2017-07-24T08:51:18.099Z,19.08
2017-07-24T08:53:50.481Z,18.99
2017-07-24T08:56:22.780Z,18.96
2017-07-24T08:58:55.145Z,18.95
2017-07-24T09:01:27.520Z,18.94
2017-07-24T09:03:59.916Z,18.91
2017-07-24T09:06:32.140Z,18.81
2017-07-24T09:09:04.451Z,18.84
2017-07-24T09:11:36.724Z,18.80
2017-07-24T09:14:08.970Z,18.90
2017-07-24T09:16:41.259Z,18.83
2017-07-24T09:19:13.733Z,18.81
2017-07-24T09:21:46.102Z,18.89
2017-07-24T09:24:18.531Z,18.91
2017-07-24T09:26:50.989Z,18.96
2017-07-24T09:29:22.928Z,18.97
2017-07-24T09:31:55.327Z,18.94
2017-07-24T09:34:27.403Z,18.99
2017-07-24T09:36:59.676Z,18.97
2017-07-24T09:39:32.016Z,18.94
2017-07-24T09:42:04.283Z,18.90
2017-07-24T09:44:36.636Z,18.96
2017-07-24T09:47:08.906Z,18.89
2017-07-24T09:49:41.400Z,18.98
2017-07-24T09:52:13.637Z,19.03
2017-07-24T09:54:45.975Z,19.03
2017-07-24T09:57:18.231Z,18.92
2017-07-24T09:59:50.489Z,18.95
2017-07-24T10:02:22.759Z,19.04
2017-07-24T10:04:55.264Z,19.07
2017-07-24T10:07:28.256Z,19.07
2017-07-24T10:10:00.884Z,18.97
2017-07-24T10:12:33.239Z,18.99
2017-07-24T10:15:05.745Z,18.99
2017-07-24T10:17:37.964Z,18.96
2017-07-24T10:20:10.304Z,19.03
2017-07-24T10:22:42.620Z,18.98
2017-07-24T10:25:14.991Z,18.89
2017-07-24T10:27:47.343Z,18.89
2017-07-24T10:30:19.616Z,18.97
2017-07-24T10:32:51.995Z,18.93
2017-07-24T10:35:24.506Z,18.89
2017-07-24T10:37:56.852Z,18.89
2017-07-24T10:40:29.327Z,18.99
2017-07-24T10:43:01.568Z,19.30
2017-07-24T10:45:33.978Z,19.65
2017-07-24T10:48:06.257Z,19.96
2017-07-24T10:50:38.631Z,20.08
2017-07-24T10:53:11.092Z,19.99
2017-07-24T10:55:43.525Z,20.09
2017-07-24T10:58:15.666Z,20.07
2017-07-24T11:00:48.054Z,20.15
2017-07-24T11:03:20.424Z,20.29
2017-07-24T11:05:53.657Z,20.29
2017-07-24T11:08:26.059Z,20.30
2017-07-24T11:10:58.656Z,20.14
2017-07-24T11:13:30.941Z,19.73
2017-07-24T11:16:03.332Z,19.74
2017-07-24T11:18:35.661Z,19.83
2017-07-24T11:21:08.076Z,19.93
2017-07-24T11:23:40.600Z,19.87
2017-07-24T11:26:12.919Z,19.85
2017-07-24T11:28:45.260Z,19.85
2017-07-24T11:31:17.712Z,19.75
2017-07-24T11:33:50.084Z,19.63
2017-07-24T11:36:22.500Z,19.68
2017-07-24T11:38:54.744Z,19.69
2017-07-24T11:41:27.178Z,19.67
2017-07-24T11:43:59.543Z,19.74
2017-07-24T11:46:31.628Z,19.91
2017-07-24T11:49:03.932Z,20.09
2017-07-24T11:51:36.631Z,20.10
2017-07-24T11:54:08.690Z,20.12
2017-07-24T11:56:41.112Z,20.31
2017-07-24T11:59:13.280Z,20.52
2017-07-24T12:01:45.536Z,20.43
2017-07-24T12:04:17.739Z,20.59
2017-07-24T12:06:50.024Z,20.79
2017-07-24T12:09:22.320Z,20.86
2017-07-24T12:11:54.636Z,20.83
2017-07-24T12:14:26.816Z,21.07
2017-07-24T12:16:59.156Z,21.35
2017-07-24T12:19:31.601Z,21.61
2017-07-24T12:22:03.931Z,21.80
2017-07-24T12:24:36.239Z,21.94
2017-07-24T12:27:08.551Z,22.07
2017-07-24T12:29:40.885Z,22.06
2017-07-24T12:32:13.388Z,22.03
2017-07-24T12:34:45.728Z,22.14
2017-07-24T12:37:18.119Z,22.25
2017-07-24T12:39:50.491Z,22.35
2017-07-24T12:42:22.956Z,22.21
2017-07-24T12:44:55.246Z,22.19
2017-07-24T12:47:28.447Z,22.20
2017-07-24T12:50:01.183Z,22.18
2017-07-24T12:52:33.715Z,22.24
2017-07-24T12:55:06.123Z,22.25
2017-07-24T12:57:38.504Z,22.20
2017-07-24T13:00:10.868Z,22.16
2017-07-24T13:02:43.119Z,22.17
2017-07-24T13:05:15.483Z,22.19
2017-07-24T13:07:47.943Z,22.14
2017-07-24T13:10:20.259Z,22.13
2017-07-24T13:12:52.616Z,22.15
2017-07-24T13:15:24.942Z,22.12
2017-07-24T13:17:57.461Z,22.10
2017-07-24T13:20:29.772Z,22.06
2017-07-24T13:23:02.131Z,22.01
2017-07-24T13:25:34.313Z,21.84
2017-07-24T13:28:06.731Z,21.80
2017-07-24T13:30:39.069Z,21.72
2017-07-24T13:33:11.476Z,21.64
2017-07-24T13:35:43.804Z,21.57
2017-07-24T13:38:16.189Z,21.50
2017-07-24T13:40:48.504Z,21.45
2017-07-24T13:43:20.854Z,21.38
2017-07-24T13:45:53.120Z,21.30
2017-07-24T13:48:25.497Z,21.28
2017-07-24T13:50:57.723Z,21.23
2017-07-24T13:53:30.196Z,21.23
2017-07-24T13:56:02.349Z,21.22
2017-07-24T13:58:34.698Z,21.22
2017-07-24T14:01:06.966Z,21.24
2017-07-24T14:03:39.255Z,21.28
2017-07-24T14:06:11.523Z,21.33
2017-07-24T14:08:43.840Z,21.42
2017-07-24T14:11:16.056Z,21.49
2017-07-24T14:13:48.437Z,21.44
2017-07-24T14:16:20.769Z,21.46
2017-07-24T14:18:53.112Z,21.49
2017-07-24T14:21:25.389Z,21.51
2017-07-24T14:23:57.816Z,21.53
2017-07-24T14:26:30.064Z,21.49
2017-07-24T14:29:02.437Z,21.44
2017-07-24T14:31:34.804Z,21.40
2017-07-24T14:34:07.179Z,21.38
2017-07-24T14:36:39.531Z,21.28
2017-07-24T14:39:11.820Z,21.28
2017-07-24T14:41:44.155Z,21.32
2017-07-24T14:44:16.415Z,21.35
2017-07-24T14:46:48.729Z,21.30
2017-07-24T14:49:21.029Z,21.27
2017-07-24T14:51:53.283Z,21.26
2017-07-24T14:54:25.613Z,21.25
2017-07-24T14:56:57.772Z,21.26
2017-07-24T14:59:30.076Z,21.28
2017-07-24T15:02:02.306Z,21.32
2017-07-24T15:04:34.759Z,21.44
2017-07-24T15:07:06.880Z,21.48
2017-07-24T15:09:39.140Z,21.55
2017-07-24T15:12:11.308Z,21.70
2017-07-24T15:14:43.559Z,21.93
2017-07-24T15:17:15.824Z,22.12
2017-07-24T15:19:48.212Z,22.14
2017-07-24T15:22:20.448Z,22.00
2017-07-24T15:24:52.735Z,21.90
2017-07-24T15:27:25.002Z,21.77
2017-07-24T15:29:57.309Z,21.81
2017-07-24T15:32:29.646Z,21.87
2017-07-24T15:35:01.940Z,21.95
2017-07-24T15:37:34.074Z,21.97
2017-07-24T15:40:06.352Z,21.96
2017-07-24T15:42:38.904Z,21.95
2017-07-24T15:45:11.091Z,21.85
2017-07-24T15:47:43.501Z,21.67
2017-07-24T15:50:15.951Z,21.59
2017-07-24T15:52:48.060Z,21.46
2017-07-24T15:55:20.477Z,21.36
2017-07-24T15:57:52.672Z,21.28
2017-07-24T16:00:24.981Z,21.17
2017-07-24T16:02:57.179Z,21.05
2017-07-24T16:05:29.424Z,20.89
2017-07-24T16:08:01.644Z,20.84
2017-07-24T16:10:34.000Z,20.84
2017-07-24T16:13:06.352Z,20.84
2017-07-24T16:15:38.693Z,20.84
2017-07-24T16:18:10.907Z,20.76
2017-07-24T16:20:43.234Z,20.67
2017-07-24T16:23:15.568Z,20.64
2017-07-24T16:25:47.809Z,20.54
2017-07-24T16:28:20.332Z,20.53
2017-07-24T16:30:52.803Z,20.51
2017-07-24T16:33:24.975Z,20.51
2017-07-24T16:35:57.469Z,20.49
2017-07-24T16:38:29.839Z,20.48
2017-07-24T16:41:02.320Z,20.41
2017-07-24T16:43:34.580Z,20.36
2017-07-24T16:46:07.133Z,20.35
2017-07-24T16:48:39.170Z,20.32
2017-07-24T16:51:11.614Z,20.31
2017-07-24T16:53:43.927Z,20.31
2017-07-24T16:56:16.381Z,20.33
2017-07-24T16:58:48.608Z,20.34
2017-07-24T17:01:20.997Z,20.35
2017-07-24T17:03:53.288Z,20.30
2017-07-24T17:06:25.569Z,20.29
2017-07-24T17:08:57.973Z,20.26
2017-07-24T17:11:30.176Z,20.21
2017-07-24T17:14:02.734Z,20.17
2017-07-24T17:16:35.054Z,20.08
2017-07-24T17:19:07.443Z,20.01
2017-07-24T17:21:39.800Z,19.90
2017-07-24T17:24:11.976Z,19.79
2017-07-24T17:26:44.308Z,19.68
2017-07-24T17:29:16.737Z,19.62
2017-07-24T17:31:49.260Z,19.56
2017-07-24T17:34:21.704Z,19.42
2017-07-24T17:36:54.104Z,19.34
2017-07-24T17:39:26.359Z,19.28
2017-07-24T17:41:58.716Z,19.22
2017-07-24T17:44:31.013Z,19.13
2017-07-24T17:47:03.264Z,19.03
2017-07-24T17:49:35.689Z,19.03
2017-07-24T17:52:07.975Z,18.93
2017-07-24T17:54:40.244Z,18.91
2017-07-24T17:57:12.544Z,18.85
2017-07-24T17:59:44.927Z,18.82
2017-07-24T18:02:17.327Z,18.78
2017-07-24T18:04:49.751Z,18.74
2017-07-24T18:07:22.283Z,18.70
2017-07-24T18:09:54.528Z,18.67
2017-07-24T18:12:26.972Z,18.61
2017-07-24T18:14:59.240Z,18.57
2017-07-24T18:17:31.815Z,18.54
2017-07-24T18:20:04.315Z,18.46
2017-07-24T18:22:36.804Z,18.42
2017-07-24T18:25:09.388Z,18.34
2017-07-24T18:27:41.499Z,18.26
2017-07-24T18:30:14.270Z,18.20
2017-07-24T18:32:46.388Z,18.16
2017-07-24T18:35:18.759Z,18.08
2017-07-24T18:37:51.224Z,17.97
2017-07-24T18:40:23.647Z,17.91
2017-07-24T18:42:56.022Z,17.88
2017-07-24T18:45:28.273Z,17.81
2017-07-24T18:48:00.804Z,17.75
2017-07-24T18:50:33.211Z,17.71
2017-07-24T18:53:05.491Z,17.61
2017-07-24T18:55:37.995Z,17.55
2017-07-24T18:58:10.410Z,17.48
2017-07-24T19:00:42.855Z,17.35
2017-07-24T19:03:15.306Z,17.29
2017-07-24T19:05:47.808Z,17.19
2017-07-24T19:08:20.072Z,17.15
2017-07-24T19:10:52.438Z,17.10
2017-07-24T19:13:25.308Z,17.01
2017-07-24T19:15:57.338Z,16.99
2017-07-24T19:18:29.783Z,16.99
2017-07-24T19:21:02.053Z,16.95
2017-07-24T19:23:34.388Z,16.96
2017-07-24T19:26:06.668Z,16.92
2017-07-24T19:28:39.062Z,16.89
2017-07-24T19:31:11.447Z,16.88
2017-07-24T19:33:43.662Z,16.87
2017-07-24T19:36:15.911Z,16.82
2017-07-24T19:38:48.387Z,16.77
2017-07-24T19:41:20.689Z,16.70
2017-07-24T19:43:53.156Z,16.66
2017-07-24T19:46:25.551Z,16.64
2017-07-24T19:48:58.045Z,16.61
2017-07-24T19:51:30.447Z,16.60
2017-07-24T19:54:02.875Z,16.59
2017-07-24T19:56:35.319Z,16.57
2017-07-24T19:59:07.657Z,16.52
2017-07-24T20:01:39.863Z,16.51
2017-07-24T20:04:12.391Z,16.50
2017-07-24T20:06:44.719Z,16.50
2017-07-24T20:09:17.047Z,16.49
2017-07-24T20:11:49.215Z,16.48
2017-07-24T20:14:21.755Z,16.48
2017-07-24T20:16:54.060Z,16.47
2017-07-24T20:19:26.492Z,16.48
2017-07-24T20:21:58.995Z,16.49
2017-07-24T20:24:31.292Z,16.49
2017-07-24T20:27:03.571Z,16.51
2017-07-24T20:29:35.892Z,16.49
2017-07-24T20:32:08.271Z,16.46
2017-07-24T20:34:40.499Z,16.47
2017-07-24T20:37:12.854Z,16.47
2017-07-24T20:39:45.227Z,16.47
2017-07-24T20:42:17.642Z,16.45
2017-07-24T20:44:50.075Z,16.47
2017-07-24T20:47:22.384Z,16.44
2017-07-24T20:49:54.727Z,16.39
2017-07-24T20:52:27.024Z,16.31
2017-07-24T20:54:59.352Z,16.35
2017-07-24T20:57:31.676Z,16.35
2017-07-24T21:00:03.923Z,16.34
2017-07-24T21:02:36.203Z,16.38
2017-07-24T21:05:09.704Z,16.38
2017-07-24T21:07:42.163Z,16.35
2017-07-24T21:10:14.512Z,16.35
2017-07-24T21:12:46.832Z,16.36
2017-07-24T21:15:19.168Z,16.39
2017-07-24T21:17:51.526Z,16.40
2017-07-24T21:20:23.896Z,16.42
2017-07-24T21:22:56.215Z,16.41
2017-07-24T21:25:28.563Z,16.47
2017-07-24T21:28:00.945Z,16.47
2017-07-24T21:30:33.366Z,16.47
2017-07-24T21:33:05.627Z,16.39
2017-07-24T21:35:37.935Z,16.39
2017-07-24T21:38:10.347Z,16.37
2017-07-24T21:40:42.819Z,16.29
2017-07-24T21:43:15.241Z,16.32
2017-07-24T21:45:47.639Z,16.25
2017-07-24T21:48:20.061Z,16.32
2017-07-24T21:50:52.436Z,16.32
2017-07-24T21:53:24.924Z,16.30
2017-07-24T21:55:57.287Z,16.30
2017-07-24T21:58:29.547Z,16.29
2017-07-24T22:01:02.027Z,16.28
2017-07-24T22:03:34.275Z,16.26
2017-07-24T22:06:06.700Z,16.24
2017-07-24T22:08:38.989Z,16.23
2017-07-24T22:11:11.363Z,16.26
2017-07-24T22:13:43.671Z,16.27
2017-07-24T22:16:16.012Z,16.29
2017-07-24T22:18:48.419Z,16.33
2017-07-24T22:21:20.828Z,16.33
2017-07-24T22:23:53.192Z,16.37
2017-07-24T22:26:25.612Z,16.38
2017-07-24T22:28:57.984Z,16.38
2017-07-24T22:31:30.404Z,16.41
2017-07-24T22:34:02.751Z,16.39
2017-07-24T22:36:35.087Z,16.41
2017-07-24T22:39:07.448Z,16.41
2017-07-24T22:41:39.934Z,16.41
2017-07-24T22:44:12.254Z,16.38
2017-07-24T22:46:44.647Z,16.42
2017-07-24T22:49:16.999Z,16.43
2017-07-24T22:51:49.411Z,16.44
2017-07-24T22:54:21.888Z,16.41
2017-07-24T22:56:54.383Z,16.41
2017-07-24T22:59:26.819Z,16.38
2017-07-24T23:01:59.436Z,16.39
2017-07-24T23:04:31.847Z,16.39
2017-07-24T23:07:04.269Z,16.37
2017-07-24T23:09:46.519Z,16.36
2017-07-24T23:12:19.103Z,16.38
2017-07-24T23:14:51.331Z,16.38
2017-07-24T23:17:24.107Z,16.38
2017-07-24T23:19:56.320Z,16.37
2017-07-24T23:22:28.838Z,16.33
2017-07-24T23:25:01.203Z,16.32
2017-07-24T23:27:33.590Z,16.34
2017-07-24T23:30:06.283Z,16.33
2017-07-24T23:32:38.448Z,16.32
2017-07-24T23:35:10.849Z,16.31
2017-07-24T23:37:43.285Z,16.31
2017-07-24T23:40:15.616Z,16.30
2017-07-24T23:42:47.935Z,16.32
2017-07-24T23:45:20.384Z,16.30
2017-07-24T23:47:52.772Z,16.31
2017-07-24T23:50:25.032Z,16.30
2017-07-24T23:52:57.516Z,16.32
2017-07-24T23:55:29.921Z,16.27
2017-07-24T23:58:02.532Z,16.27
